sensor_id;sensor_type;location;lat;lon;timestamp;temperature;humidity
16814;DHT22;8524;57.650;11.926;2023-04-24T00:01:05;8.40;99.90
16814;DHT22;8524;57.650;11.926;2023-04-24T00:03:34;8.40;99.90
16814;DHT22;8524;57.650;11.926;2023-04-24T00:06:01;8.60;99.90
16814;DHT22;8524;57.650;11.926;2023-04-24T00:08:28;8.60;99.90
16814;DHT22;8524;57.650;11.926;2023-04-24T00:10:55;8.60;99.90
16814;DHT22;8524;57.650;11.926;2023-04-24T00:13:22;8.70;99.90
16814;DHT22;8524;57.650;11.926;2023-04-24T00:15:49;8.60;99.90
16814;DHT22;8524;57.650;11.926;2023-04-24T00:18:16;8.60;99.90
16814;DHT22;8524;57.650;11.926;2023-04-24T00:20:44;8.50;99.90
16814;DHT22;8524;57.650;11.926;2023-04-24T00:23:12;8.50;99.90
16814;DHT22;8524;57.650;11.926;2023-04-24T00:25:39;8.40;99.90
16814;DHT22;8524;57.650;11.926;2023-04-24T00:28:06;8.40;99.90
16814;DHT22;8524;57.650;11.926;2023-04-24T00:30:33;8.40;99.90
16814;DHT22;8524;57.650;11.926;2023-04-24T00:33:00;8.30;99.90
16814;DHT22;8524;57.650;11.926;2023-04-24T00:35:27;8.30;99.90
16814;DHT22;8524;57.650;11.926;2023-04-24T00:37:55;8.30;99.90
16814;DHT22;8524;57.650;11.926;2023-04-24T00:40:22;8.30;99.90
16814;DHT22;8524;57.650;11.926;2023-04-24T00:42:49;8.30;99.90
16814;DHT22;8524;57.650;11.926;2023-04-24T00:45:17;8.30;99.90
16814;DHT22;8524;57.650;11.926;2023-04-24T00:47:45;8.20;99.90
16814;DHT22;8524;57.650;11.926;2023-04-24T00:50:15;8.20;99.90
16814;DHT22;8524;57.650;11.926;2023-04-24T00:52:42;8.20;99.90
16814;DHT22;8524;57.650;11.926;2023-04-24T00:55:11;8.20;99.90
16814;DHT22;8524;57.650;11.926;2023-04-24T00:57:38;8.20;99.90
16814;DHT22;8524;57.650;11.926;2023-04-24T01:00:06;8.30;99.90
16814;DHT22;8524;57.650;11.926;2023-04-24T01:02:37;8.30;99.90
16814;DHT22;8524;57.650;11.926;2023-04-24T01:05:06;8.40;99.90
16814;DHT22;8524;57.650;11.926;2023-04-24T01:07:34;8.40;99.90
16814;DHT22;8524;57.650;11.926;2023-04-24T01:10:02;8.50;99.90
16814;DHT22;8524;57.650;11.926;2023-04-24T01:12:32;8.60;99.90
16814;DHT22;8524;57.650;11.926;2023-04-24T01:14:59;8.70;99.90
16814;DHT22;8524;57.650;11.926;2023-04-24T01:17:26;8.70;99.90
16814;DHT22;8524;57.650;11.926;2023-04-24T01:19:53;8.70;99.90
16814;DHT22;8524;57.650;11.926;2023-04-24T01:22:23;8.80;99.90
16814;DHT22;8524;57.650;11.926;2023-04-24T01:24:51;8.80;99.90
16814;DHT22;8524;57.650;11.926;2023-04-24T01:27:19;8.80;99.90
16814;DHT22;8524;57.650;11.926;2023-04-24T01:29:46;8.80;99.90
16814;DHT22;8524;57.650;11.926;2023-04-24T01:32:15;8.80;99.90
16814;DHT22;8524;57.650;11.926;2023-04-24T01:34:43;8.90;99.90
16814;DHT22;8524;57.650;11.926;2023-04-24T01:37:10;8.80;99.90
16814;DHT22;8524;57.650;11.926;2023-04-24T01:39:39;8.90;99.90
16814;DHT22;8524;57.650;11.926;2023-04-24T01:42:06;8.90;99.90
16814;DHT22;8524;57.650;11.926;2023-04-24T01:44:33;8.90;99.90
16814;DHT22;8524;57.650;11.926;2023-04-24T01:47:01;8.90;99.90
16814;DHT22;8524;57.650;11.926;2023-04-24T01:49:28;8.90;99.90
16814;DHT22;8524;57.650;11.926;2023-04-24T01:51:56;9.00;99.90
16814;DHT22;8524;57.650;11.926;2023-04-24T01:54:23;8.90;99.90
16814;DHT22;8524;57.650;11.926;2023-04-24T01:56:51;8.90;99.90
16814;DHT22;8524;57.650;11.926;2023-04-24T01:59:20;8.90;99.90
16814;DHT22;8524;57.650;11.926;2023-04-24T02:01:48;8.90;99.90
16814;DHT22;8524;57.650;11.926;2023-04-24T02:04:15;8.80;99.90
16814;DHT22;8524;57.650;11.926;2023-04-24T02:06:42;8.80;99.90
16814;DHT22;8524;57.650;11.926;2023-04-24T02:09:09;8.80;99.90
16814;DHT22;8524;57.650;11.926;2023-04-24T02:11:36;8.80;99.90
16814;DHT22;8524;57.650;11.926;2023-04-24T02:14:04;8.80;99.90
16814;DHT22;8524;57.650;11.926;2023-04-24T02:16:31;8.90;99.90
16814;DHT22;8524;57.650;11.926;2023-04-24T02:18:59;8.90;99.90
16814;DHT22;8524;57.650;11.926;2023-04-24T02:21:26;8.90;99.90
16814;DHT22;8524;57.650;11.926;2023-04-24T02:23:54;8.90;99.90
16814;DHT22;8524;57.650;11.926;2023-04-24T02:26:21;8.90;99.90
16814;DHT22;8524;57.650;11.926;2023-04-24T02:28:48;8.80;99.90
16814;DHT22;8524;57.650;11.926;2023-04-24T02:31:17;8.80;99.90
16814;DHT22;8524;57.650;11.926;2023-04-24T02:33:44;8.80;99.90
16814;DHT22;8524;57.650;11.926;2023-04-24T02:36:11;8.70;99.90
16814;DHT22;8524;57.650;11.926;2023-04-24T02:38:38;8.70;99.90
16814;DHT22;8524;57.650;11.926;2023-04-24T02:41:05;8.70;99.90
16814;DHT22;8524;57.650;11.926;2023-04-24T02:43:33;8.70;99.90
16814;DHT22;8524;57.650;11.926;2023-04-24T02:46:00;8.70;99.90
16814;DHT22;8524;57.650;11.926;2023-04-24T02:48:28;8.60;99.90
16814;DHT22;8524;57.650;11.926;2023-04-24T02:50:55;8.60;99.90
16814;DHT22;8524;57.650;11.926;2023-04-24T02:53:23;8.50;99.90
16814;DHT22;8524;57.650;11.926;2023-04-24T02:55:50;8.50;99.90
16814;DHT22;8524;57.650;11.926;2023-04-24T02:58:17;8.50;99.90
16814;DHT22;8524;57.650;11.926;2023-04-24T03:00:45;8.40;99.90
16814;DHT22;8524;57.650;11.926;2023-04-24T03:03:13;8.40;99.90
16814;DHT22;8524;57.650;11.926;2023-04-24T03:05:42;8.40;99.90
16814;DHT22;8524;57.650;11.926;2023-04-24T03:08:09;8.30;99.90
16814;DHT22;8524;57.650;11.926;2023-04-24T03:10:36;8.30;99.90
16814;DHT22;8524;57.650;11.926;2023-04-24T03:13:03;8.30;99.90
16814;DHT22;8524;57.650;11.926;2023-04-24T03:15:30;8.20;99.90
16814;DHT22;8524;57.650;11.926;2023-04-24T03:17:57;8.20;99.90
16814;DHT22;8524;57.650;11.926;2023-04-24T03:20:26;8.20;99.90
16814;DHT22;8524;57.650;11.926;2023-04-24T03:22:54;8.20;99.90
16814;DHT22;8524;57.650;11.926;2023-04-24T03:25:22;8.20;99.90
16814;DHT22;8524;57.650;11.926;2023-04-24T03:27:49;8.20;99.90
16814;DHT22;8524;57.650;11.926;2023-04-24T03:30:16;8.20;99.90
16814;DHT22;8524;57.650;11.926;2023-04-24T03:32:43;8.20;99.90
16814;DHT22;8524;57.650;11.926;2023-04-24T03:35:10;8.20;99.90
16814;DHT22;8524;57.650;11.926;2023-04-24T03:37:37;8.20;99.90
16814;DHT22;8524;57.650;11.926;2023-04-24T03:40:07;8.10;99.90
16814;DHT22;8524;57.650;11.926;2023-04-24T03:42:34;8.10;99.90
16814;DHT22;8524;57.650;11.926;2023-04-24T03:45:01;8.10;99.90
16814;DHT22;8524;57.650;11.926;2023-04-24T03:47:28;8.10;99.90
16814;DHT22;8524;57.650;11.926;2023-04-24T03:49:55;8.10;99.90
16814;DHT22;8524;57.650;11.926;2023-04-24T03:52:22;8.10;99.90
16814;DHT22;8524;57.650;11.926;2023-04-24T03:54:49;8.00;99.90
16814;DHT22;8524;57.650;11.926;2023-04-24T03:57:18;8.00;99.90
16814;DHT22;8524;57.650;11.926;2023-04-24T03:59:46;8.00;99.90
16814;DHT22;8524;57.650;11.926;2023-04-24T04:02:13;8.10;99.90
16814;DHT22;8524;57.650;11.926;2023-04-24T04:04:40;8.10;99.90
16814;DHT22;8524;57.650;11.926;2023-04-24T04:07:07;8.10;99.90
16814;DHT22;8524;57.650;11.926;2023-04-24T04:09:34;8.10;99.90
16814;DHT22;8524;57.650;11.926;2023-04-24T04:12:01;8.10;99.90
16814;DHT22;8524;57.650;11.926;2023-04-24T04:14:29;8.20;99.90
16814;DHT22;8524;57.650;11.926;2023-04-24T04:16:56;8.20;99.90
16814;DHT22;8524;57.650;11.926;2023-04-24T04:19:23;8.20;99.90
16814;DHT22;8524;57.650;11.926;2023-04-24T04:21:50;8.30;99.90
16814;DHT22;8524;57.650;11.926;2023-04-24T04:24:19;8.30;99.90
16814;DHT22;8524;57.650;11.926;2023-04-24T04:26:48;8.30;99.90
16814;DHT22;8524;57.650;11.926;2023-04-24T04:29:16;8.30;99.90
16814;DHT22;8524;57.650;11.926;2023-04-24T04:31:45;8.30;99.90
16814;DHT22;8524;57.650;11.926;2023-04-24T04:34:12;8.40;99.90
16814;DHT22;8524;57.650;11.926;2023-04-24T04:36:40;8.40;99.90
16814;DHT22;8524;57.650;11.926;2023-04-24T04:39:07;8.40;99.90
16814;DHT22;8524;57.650;11.926;2023-04-24T04:41:34;8.40;99.90
16814;DHT22;8524;57.650;11.926;2023-04-24T04:44:01;8.40;99.90
16814;DHT22;8524;57.650;11.926;2023-04-24T04:46:30;8.40;99.90
16814;DHT22;8524;57.650;11.926;2023-04-24T04:49:01;8.50;99.90
16814;DHT22;8524;57.650;11.926;2023-04-24T04:51:28;8.50;99.90
16814;DHT22;8524;57.650;11.926;2023-04-24T04:53:55;8.50;99.90
16814;DHT22;8524;57.650;11.926;2023-04-24T04:56:22;8.50;99.90
16814;DHT22;8524;57.650;11.926;2023-04-24T04:58:49;8.60;99.90
16814;DHT22;8524;57.650;11.926;2023-04-24T05:01:16;8.50;99.90
16814;DHT22;8524;57.650;11.926;2023-04-24T05:03:44;8.60;99.90
16814;DHT22;8524;57.650;11.926;2023-04-24T05:06:12;8.60;99.90
16814;DHT22;8524;57.650;11.926;2023-04-24T05:08:39;8.60;99.90
16814;DHT22;8524;57.650;11.926;2023-04-24T05:11:06;8.60;99.90
16814;DHT22;8524;57.650;11.926;2023-04-24T05:13:33;8.70;99.90
16814;DHT22;8524;57.650;11.926;2023-04-24T05:16:00;8.70;99.90
16814;DHT22;8524;57.650;11.926;2023-04-24T05:18:27;8.70;99.90
16814;DHT22;8524;57.650;11.926;2023-04-24T05:20:54;8.70;99.90
16814;DHT22;8524;57.650;11.926;2023-04-24T05:23:23;8.70;99.90
16814;DHT22;8524;57.650;11.926;2023-04-24T05:25:50;8.80;99.90
16814;DHT22;8524;57.650;11.926;2023-04-24T05:28:18;8.80;99.90
16814;DHT22;8524;57.650;11.926;2023-04-24T05:30:45;8.90;99.90
16814;DHT22;8524;57.650;11.926;2023-04-24T05:33:12;8.90;99.90
16814;DHT22;8524;57.650;11.926;2023-04-24T05:35:40;8.90;99.90
16814;DHT22;8524;57.650;11.926;2023-04-24T05:38:11;8.90;99.90
16814;DHT22;8524;57.650;11.926;2023-04-24T05:40:39;8.90;99.90
16814;DHT22;8524;57.650;11.926;2023-04-24T05:43:06;8.90;99.90
16814;DHT22;8524;57.650;11.926;2023-04-24T05:45:33;8.90;99.90
16814;DHT22;8524;57.650;11.926;2023-04-24T05:48:01;8.90;99.90
16814;DHT22;8524;57.650;11.926;2023-04-24T05:50:28;9.00;99.90
16814;DHT22;8524;57.650;11.926;2023-04-24T05:52:55;9.10;99.90
16814;DHT22;8524;57.650;11.926;2023-04-24T05:55:24;9.10;99.90
16814;DHT22;8524;57.650;11.926;2023-04-24T05:57:53;9.20;99.90
16814;DHT22;8524;57.650;11.926;2023-04-24T06:00:20;9.20;99.90
16814;DHT22;8524;57.650;11.926;2023-04-24T06:02:47;9.20;99.90
16814;DHT22;8524;57.650;11.926;2023-04-24T06:05:14;9.30;99.90
16814;DHT22;8524;57.650;11.926;2023-04-24T06:07:42;9.40;99.90
16814;DHT22;8524;57.650;11.926;2023-04-24T06:10:10;9.40;99.90
16814;DHT22;8524;57.650;11.926;2023-04-24T06:12:37;9.40;99.90
16814;DHT22;8524;57.650;11.926;2023-04-24T06:15:07;9.40;99.90
16814;DHT22;8524;57.650;11.926;2023-04-24T06:17:34;9.40;99.90
16814;DHT22;8524;57.650;11.926;2023-04-24T06:20:01;9.40;99.90
16814;DHT22;8524;57.650;11.926;2023-04-24T06:22:31;9.50;99.90
16814;DHT22;8524;57.650;11.926;2023-04-24T06:24:59;9.50;99.90
16814;DHT22;8524;57.650;11.926;2023-04-24T06:27:26;9.50;99.90
16814;DHT22;8524;57.650;11.926;2023-04-24T06:29:54;9.60;99.90
16814;DHT22;8524;57.650;11.926;2023-04-24T06:32:23;9.60;99.90
16814;DHT22;8524;57.650;11.926;2023-04-24T06:34:51;9.70;99.90
16814;DHT22;8524;57.650;11.926;2023-04-24T06:37:19;9.80;99.90
16814;DHT22;8524;57.650;11.926;2023-04-24T06:39:46;9.90;99.90
16814;DHT22;8524;57.650;11.926;2023-04-24T06:42:14;10.00;99.90
16814;DHT22;8524;57.650;11.926;2023-04-24T06:44:41;10.10;99.90
16814;DHT22;8524;57.650;11.926;2023-04-24T06:47:08;10.20;99.90
16814;DHT22;8524;57.650;11.926;2023-04-24T06:49:37;10.30;99.90
16814;DHT22;8524;57.650;11.926;2023-04-24T06:52:05;10.40;99.90
16814;DHT22;8524;57.650;11.926;2023-04-24T06:54:32;10.50;99.90
16814;DHT22;8524;57.650;11.926;2023-04-24T06:56:59;10.60;99.90
16814;DHT22;8524;57.650;11.926;2023-04-24T06:59:28;10.60;99.90
16814;DHT22;8524;57.650;11.926;2023-04-24T07:01:55;10.70;99.90
16814;DHT22;8524;57.650;11.926;2023-04-24T07:04:22;10.60;99.90
16814;DHT22;8524;57.650;11.926;2023-04-24T07:06:52;10.60;99.90
16814;DHT22;8524;57.650;11.926;2023-04-24T07:09:21;10.50;99.90
16814;DHT22;8524;57.650;11.926;2023-04-24T07:11:49;10.50;99.90
16814;DHT22;8524;57.650;11.926;2023-04-24T07:14:17;10.40;99.90
16814;DHT22;8524;57.650;11.926;2023-04-24T07:16:44;10.40;99.90
16814;DHT22;8524;57.650;11.926;2023-04-24T07:19:12;10.40;99.90
16814;DHT22;8524;57.650;11.926;2023-04-24T07:21:39;10.40;99.90
16814;DHT22;8524;57.650;11.926;2023-04-24T07:24:08;10.30;99.90
16814;DHT22;8524;57.650;11.926;2023-04-24T07:26:37;10.30;99.90
16814;DHT22;8524;57.650;11.926;2023-04-24T07:29:04;10.20;99.90
16814;DHT22;8524;57.650;11.926;2023-04-24T07:31:31;10.20;99.90
16814;DHT22;8524;57.650;11.926;2023-04-24T07:33:59;10.10;99.90
16814;DHT22;8524;57.650;11.926;2023-04-24T07:36:27;10.10;99.90
16814;DHT22;8524;57.650;11.926;2023-04-24T07:38:55;10.10;99.90
16814;DHT22;8524;57.650;11.926;2023-04-24T07:41:24;10.00;99.90
16814;DHT22;8524;57.650;11.926;2023-04-24T07:43:53;10.00;99.90
16814;DHT22;8524;57.650;11.926;2023-04-24T07:46:20;10.00;99.90
16814;DHT22;8524;57.650;11.926;2023-04-24T07:48:49;10.00;99.90
16814;DHT22;8524;57.650;11.926;2023-04-24T07:51:16;10.00;99.90
16814;DHT22;8524;57.650;11.926;2023-04-24T07:53:43;9.90;99.90
16814;DHT22;8524;57.650;11.926;2023-04-24T07:56:10;9.90;99.90
16814;DHT22;8524;57.650;11.926;2023-04-24T07:58:39;9.90;99.90
16814;DHT22;8524;57.650;11.926;2023-04-24T08:01:06;9.80;99.90
16814;DHT22;8524;57.650;11.926;2023-04-24T08:03:33;9.80;99.90
16814;DHT22;8524;57.650;11.926;2023-04-24T08:06:01;9.80;99.90
16814;DHT22;8524;57.650;11.926;2023-04-24T08:08:28;9.60;99.90
16814;DHT22;8524;57.650;11.926;2023-04-24T08:10:55;9.70;99.90
16814;DHT22;8524;57.650;11.926;2023-04-24T08:13:22;9.70;99.90
16814;DHT22;8524;57.650;11.926;2023-04-24T08:15:51;9.70;99.90
16814;DHT22;8524;57.650;11.926;2023-04-24T08:18:18;9.50;99.90
16814;DHT22;8524;57.650;11.926;2023-04-24T08:20:45;9.40;99.90
16814;DHT22;8524;57.650;11.926;2023-04-24T08:23:12;9.30;99.90
16814;DHT22;8524;57.650;11.926;2023-04-24T08:25:39;9.20;99.90
16814;DHT22;8524;57.650;11.926;2023-04-24T08:28:07;9.10;99.90
16814;DHT22;8524;57.650;11.926;2023-04-24T08:30:35;9.20;99.90
16814;DHT22;8524;57.650;11.926;2023-04-24T08:33:04;9.20;99.90
16814;DHT22;8524;57.650;11.926;2023-04-24T08:35:31;9.20;99.90
16814;DHT22;8524;57.650;11.926;2023-04-24T08:37:58;9.10;99.90
16814;DHT22;8524;57.650;11.926;2023-04-24T08:40:28;9.10;99.90
16814;DHT22;8524;57.650;11.926;2023-04-24T08:42:56;9.10;99.90
16814;DHT22;8524;57.650;11.926;2023-04-24T08:45:23;9.10;99.90
16814;DHT22;8524;57.650;11.926;2023-04-24T08:47:52;9.00;99.90
16814;DHT22;8524;57.650;11.926;2023-04-24T08:50:22;9.10;99.90
16814;DHT22;8524;57.650;11.926;2023-04-24T08:52:50;9.20;99.90
16814;DHT22;8524;57.650;11.926;2023-04-24T08:55:19;9.20;99.90
16814;DHT22;8524;57.650;11.926;2023-04-24T08:57:50;9.20;99.90
16814;DHT22;8524;57.650;11.926;2023-04-24T09:00:20;9.20;99.90
16814;DHT22;8524;57.650;11.926;2023-04-24T09:02:49;9.20;99.90
16814;DHT22;8524;57.650;11.926;2023-04-24T09:05:17;9.10;99.90
16814;DHT22;8524;57.650;11.926;2023-04-24T09:07:50;9.20;99.90
16814;DHT22;8524;57.650;11.926;2023-04-24T09:10:21;9.10;99.90
16814;DHT22;8524;57.650;11.926;2023-04-24T09:12:50;9.00;99.90
16814;DHT22;8524;57.650;11.926;2023-04-24T09:15:18;9.10;99.90
16814;DHT22;8524;57.650;11.926;2023-04-24T09:17:46;9.00;99.90
16814;DHT22;8524;57.650;11.926;2023-04-24T09:20:13;9.20;99.90
16814;DHT22;8524;57.650;11.926;2023-04-24T09:22:41;9.10;99.90
16814;DHT22;8524;57.650;11.926;2023-04-24T09:25:10;9.20;99.90
16814;DHT22;8524;57.650;11.926;2023-04-24T09:27:42;9.20;99.90
16814;DHT22;8524;57.650;11.926;2023-04-24T09:30:10;9.30;99.90
16814;DHT22;8524;57.650;11.926;2023-04-24T09:32:37;9.40;99.90
16814;DHT22;8524;57.650;11.926;2023-04-24T09:35:09;9.40;99.90
16814;DHT22;8524;57.650;11.926;2023-04-24T09:37:38;9.50;99.90
16814;DHT22;8524;57.650;11.926;2023-04-24T09:40:11;9.50;99.90
16814;DHT22;8524;57.650;11.926;2023-04-24T09:42:38;9.50;99.90
16814;DHT22;8524;57.650;11.926;2023-04-24T09:45:09;9.60;99.90
16814;DHT22;8524;57.650;11.926;2023-04-24T09:47:37;9.70;99.90
16814;DHT22;8524;57.650;11.926;2023-04-24T09:50:12;9.70;99.90
16814;DHT22;8524;57.650;11.926;2023-04-24T09:52:41;9.80;99.90
16814;DHT22;8524;57.650;11.926;2023-04-24T09:55:19;9.80;99.90
16814;DHT22;8524;57.650;11.926;2023-04-24T09:57:51;9.80;99.90
16814;DHT22;8524;57.650;11.926;2023-04-24T10:00:21;9.80;99.90
16814;DHT22;8524;57.650;11.926;2023-04-24T10:02:54;9.90;99.90
16814;DHT22;8524;57.650;11.926;2023-04-24T10:05:24;10.00;99.90
16814;DHT22;8524;57.650;11.926;2023-04-24T10:07:51;10.00;99.90
16814;DHT22;8524;57.650;11.926;2023-04-24T10:10:24;10.10;99.90
16814;DHT22;8524;57.650;11.926;2023-04-24T10:12:51;10.00;99.90
16814;DHT22;8524;57.650;11.926;2023-04-24T10:15:20;10.00;99.90
16814;DHT22;8524;57.650;11.926;2023-04-24T10:17:48;9.90;99.90
16814;DHT22;8524;57.650;11.926;2023-04-24T10:20:19;10.00;99.90
16814;DHT22;8524;57.650;11.926;2023-04-24T10:22:48;10.00;99.90
16814;DHT22;8524;57.650;11.926;2023-04-24T10:25:18;10.10;99.90
16814;DHT22;8524;57.650;11.926;2023-04-24T10:27:49;10.20;99.90
16814;DHT22;8524;57.650;11.926;2023-04-24T10:30:17;10.30;99.90
16814;DHT22;8524;57.650;11.926;2023-04-24T10:32:44;10.40;99.90
16814;DHT22;8524;57.650;11.926;2023-04-24T10:35:13;10.60;99.90
16814;DHT22;8524;57.650;11.926;2023-04-24T10:37:44;11.00;99.90
16814;DHT22;8524;57.650;11.926;2023-04-24T10:40:16;11.30;99.90
16814;DHT22;8524;57.650;11.926;2023-04-24T10:42:49;11.60;99.90
16814;DHT22;8524;57.650;11.926;2023-04-24T10:45:19;12.10;99.90
16814;DHT22;8524;57.650;11.926;2023-04-24T10:47:57;12.30;99.90
16814;DHT22;8524;57.650;11.926;2023-04-24T10:50:26;12.20;99.90
16814;DHT22;8524;57.650;11.926;2023-04-24T10:52:55;12.50;99.90
16814;DHT22;8524;57.650;11.926;2023-04-24T10:55:46;12.50;99.90
16814;DHT22;8524;57.650;11.926;2023-04-24T10:58:15;12.60;99.90
16814;DHT22;8524;57.650;11.926;2023-04-24T11:00:44;12.70;99.90
16814;DHT22;8524;57.650;11.926;2023-04-24T11:03:27;12.90;99.90
16814;DHT22;8524;57.650;11.926;2023-04-24T11:05:59;12.80;99.90
16814;DHT22;8524;57.650;11.926;2023-04-24T11:08:31;12.60;99.90
16814;DHT22;8524;57.650;11.926;2023-04-24T11:11:02;12.50;99.90
16814;DHT22;8524;57.650;11.926;2023-04-24T11:16:43;12.60;99.90
16814;DHT22;8524;57.650;11.926;2023-04-24T11:19:20;12.60;99.90
16814;DHT22;8524;57.650;11.926;2023-04-24T11:21:55;12.90;99.90
16814;DHT22;8524;57.650;11.926;2023-04-24T11:24:27;12.90;99.90
16814;DHT22;8524;57.650;11.926;2023-04-24T11:26:55;13.10;99.90
16814;DHT22;8524;57.650;11.926;2023-04-24T11:29:24;13.30;99.90
16814;DHT22;8524;57.650;11.926;2023-04-24T11:32:22;13.40;99.90
16814;DHT22;8524;57.650;11.926;2023-04-24T11:34:51;13.40;99.90
16814;DHT22;8524;57.650;11.926;2023-04-24T11:37:18;13.30;99.90
16814;DHT22;8524;57.650;11.926;2023-04-24T11:39:45;13.40;99.90
16814;DHT22;8524;57.650;11.926;2023-04-24T11:42:15;13.30;99.90
16814;DHT22;8524;57.650;11.926;2023-04-24T11:44:42;13.30;99.90
16814;DHT22;8524;57.650;11.926;2023-04-24T11:47:10;13.40;99.90
16814;DHT22;8524;57.650;11.926;2023-04-24T11:49:38;13.80;99.90
16814;DHT22;8524;57.650;11.926;2023-04-24T11:52:06;14.00;99.90
16814;DHT22;8524;57.650;11.926;2023-04-24T11:54:36;14.10;99.90
16814;DHT22;8524;57.650;11.926;2023-04-24T11:57:04;14.10;99.90
16814;DHT22;8524;57.650;11.926;2023-04-24T11:59:36;13.90;99.90
16814;DHT22;8524;57.650;11.926;2023-04-24T12:02:03;13.90;99.90
16814;DHT22;8524;57.650;11.926;2023-04-24T12:04:40;13.60;99.90
16814;DHT22;8524;57.650;11.926;2023-04-24T12:07:07;13.70;99.90
16814;DHT22;8524;57.650;11.926;2023-04-24T12:09:45;13.70;99.90
16814;DHT22;8524;57.650;11.926;2023-04-24T12:12:14;13.80;99.90
16814;DHT22;8524;57.650;11.926;2023-04-24T12:14:48;13.80;99.90
16814;DHT22;8524;57.650;11.926;2023-04-24T12:17:24;13.80;99.90
16814;DHT22;8524;57.650;11.926;2023-04-24T12:19:57;13.80;99.90
16814;DHT22;8524;57.650;11.926;2023-04-24T12:22:25;13.80;99.90
16814;DHT22;8524;57.650;11.926;2023-04-24T12:25:00;13.80;99.90
16814;DHT22;8524;57.650;11.926;2023-04-24T12:27:30;13.80;99.90
16814;DHT22;8524;57.650;11.926;2023-04-24T12:29:58;13.80;99.90
16814;DHT22;8524;57.650;11.926;2023-04-24T12:32:26;13.60;99.90
16814;DHT22;8524;57.650;11.926;2023-04-24T12:34:55;13.60;99.90
16814;DHT22;8524;57.650;11.926;2023-04-24T12:37:23;13.60;99.90
16814;DHT22;8524;57.650;11.926;2023-04-24T12:40:04;13.50;99.90
16814;DHT22;8524;57.650;11.926;2023-04-24T12:42:33;13.40;99.90
16814;DHT22;8524;57.650;11.926;2023-04-24T12:45:01;13.40;99.90
16814;DHT22;8524;57.650;11.926;2023-04-24T12:47:30;13.40;99.90
16814;DHT22;8524;57.650;11.926;2023-04-24T12:49:59;13.30;99.90
16814;DHT22;8524;57.650;11.926;2023-04-24T12:52:27;13.30;99.90
16814;DHT22;8524;57.650;11.926;2023-04-24T12:54:56;13.40;99.90
16814;DHT22;8524;57.650;11.926;2023-04-24T12:57:25;13.40;99.90
16814;DHT22;8524;57.650;11.926;2023-04-24T12:59:54;13.40;99.90
16814;DHT22;8524;57.650;11.926;2023-04-24T13:02:21;13.30;99.90
16814;DHT22;8524;57.650;11.926;2023-04-24T13:04:49;13.30;99.90
16814;DHT22;8524;57.650;11.926;2023-04-24T13:07:18;13.30;99.90
16814;DHT22;8524;57.650;11.926;2023-04-24T13:09:47;13.20;99.90
16814;DHT22;8524;57.650;11.926;2023-04-24T13:12:14;13.20;99.90
16814;DHT22;8524;57.650;11.926;2023-04-24T13:14:41;13.20;99.90
16814;DHT22;8524;57.650;11.926;2023-04-24T13:17:09;13.30;99.90
16814;DHT22;8524;57.650;11.926;2023-04-24T13:19:38;13.40;99.90
16814;DHT22;8524;57.650;11.926;2023-04-24T13:22:06;13.60;99.90
16814;DHT22;8524;57.650;11.926;2023-04-24T13:24:40;13.60;99.90
16814;DHT22;8524;57.650;11.926;2023-04-24T13:27:07;13.70;99.90
16814;DHT22;8524;57.650;11.926;2023-04-24T13:29:35;13.80;99.90
16814;DHT22;8524;57.650;11.926;2023-04-24T13:32:02;13.80;99.90
16814;DHT22;8524;57.650;11.926;2023-04-24T13:34:29;13.90;99.90
16814;DHT22;8524;57.650;11.926;2023-04-24T13:36:57;13.90;99.90
16814;DHT22;8524;57.650;11.926;2023-04-24T13:39:25;13.90;99.90
16814;DHT22;8524;57.650;11.926;2023-04-24T13:41:54;13.90;99.90
16814;DHT22;8524;57.650;11.926;2023-04-24T13:44:22;13.80;99.90
16814;DHT22;8524;57.650;11.926;2023-04-24T13:46:50;13.80;99.90
16814;DHT22;8524;57.650;11.926;2023-04-24T13:49:20;13.90;99.90
16814;DHT22;8524;57.650;11.926;2023-04-24T13:51:47;13.80;99.90
16814;DHT22;8524;57.650;11.926;2023-04-24T13:54:14;13.80;99.90
16814;DHT22;8524;57.650;11.926;2023-04-24T13:56:41;13.70;99.90
16814;DHT22;8524;57.650;11.926;2023-04-24T13:59:12;13.70;99.90
16814;DHT22;8524;57.650;11.926;2023-04-24T14:01:39;13.70;99.90
16814;DHT22;8524;57.650;11.926;2023-04-24T14:04:06;13.60;99.90
16814;DHT22;8524;57.650;11.926;2023-04-24T14:06:33;13.50;99.90
16814;DHT22;8524;57.650;11.926;2023-04-24T14:09:00;13.40;99.90
16814;DHT22;8524;57.650;11.926;2023-04-24T14:11:28;13.30;99.90
16814;DHT22;8524;57.650;11.926;2023-04-24T14:13:55;13.40;99.90
16814;DHT22;8524;57.650;11.926;2023-04-24T14:16:25;13.40;99.90
16814;DHT22;8524;57.650;11.926;2023-04-24T14:18:52;13.30;99.90
16814;DHT22;8524;57.650;11.926;2023-04-24T14:21:19;13.30;99.90
16814;DHT22;8524;57.650;11.926;2023-04-24T14:23:46;13.30;99.90
16814;DHT22;8524;57.650;11.926;2023-04-24T14:26:13;13.30;99.90
16814;DHT22;8524;57.650;11.926;2023-04-24T14:28:40;13.30;99.90
16814;DHT22;8524;57.650;11.926;2023-04-24T14:31:07;13.40;99.90
16814;DHT22;8524;57.650;11.926;2023-04-24T14:33:36;13.40;99.90
16814;DHT22;8524;57.650;11.926;2023-04-24T14:36:03;13.30;99.90
16814;DHT22;8524;57.650;11.926;2023-04-24T14:38:31;13.20;99.90
16814;DHT22;8524;57.650;11.926;2023-04-24T14:40:58;13.20;99.90
16814;DHT22;8524;57.650;11.926;2023-04-24T14:43:25;13.30;99.90
16814;DHT22;8524;57.650;11.926;2023-04-24T14:45:52;13.30;99.90
16814;DHT22;8524;57.650;11.926;2023-04-24T14:48:19;13.10;99.90
16814;DHT22;8524;57.650;11.926;2023-04-24T14:50:48;13.00;99.90
16814;DHT22;8524;57.650;11.926;2023-04-24T14:53:14;13.10;99.90
16814;DHT22;8524;57.650;11.926;2023-04-24T14:55:42;13.00;99.90
16814;DHT22;8524;57.650;11.926;2023-04-24T14:58:09;13.10;99.90
16814;DHT22;8524;57.650;11.926;2023-04-24T15:00:36;13.10;99.90
16814;DHT22;8524;57.650;11.926;2023-04-24T15:03:03;13.20;99.90
16814;DHT22;8524;57.650;11.926;2023-04-24T15:05:30;13.20;99.90
16814;DHT22;8524;57.650;11.926;2023-04-24T15:07:59;13.20;99.90
16814;DHT22;8524;57.650;11.926;2023-04-24T15:10:26;13.20;99.90
16814;DHT22;8524;57.650;11.926;2023-04-24T15:12:54;13.30;99.90
16814;DHT22;8524;57.650;11.926;2023-04-24T15:15:22;13.20;99.90
16814;DHT22;8524;57.650;11.926;2023-04-24T15:17:49;13.10;99.90
16814;DHT22;8524;57.650;11.926;2023-04-24T15:20:16;13.10;99.90
16814;DHT22;8524;57.650;11.926;2023-04-24T15:22:43;13.10;99.90
16814;DHT22;8524;57.650;11.926;2023-04-24T15:25:11;13.00;99.90
16814;DHT22;8524;57.650;11.926;2023-04-24T15:27:40;13.00;99.90
16814;DHT22;8524;57.650;11.926;2023-04-24T15:30:08;13.00;99.90
16814;DHT22;8524;57.650;11.926;2023-04-24T15:32:36;12.90;99.90
16814;DHT22;8524;57.650;11.926;2023-04-24T15:35:03;12.90;99.90
16814;DHT22;8524;57.650;11.926;2023-04-24T15:37:30;12.80;99.90
16814;DHT22;8524;57.650;11.926;2023-04-24T15:39:57;12.80;99.90
16814;DHT22;8524;57.650;11.926;2023-04-24T15:42:26;12.80;99.90
16814;DHT22;8524;57.650;11.926;2023-04-24T15:44:53;12.80;99.90
16814;DHT22;8524;57.650;11.926;2023-04-24T15:47:20;12.80;99.90
16814;DHT22;8524;57.650;11.926;2023-04-24T15:49:48;12.90;99.90